Cherry Creek, Idaho
Current Conditions -  °F | °C
As of 4:51 AM on Thursday 27 Nov 2014 (Local Time) from KLGU Reporting Station
Clear Clear  
Wind Chill: 34°   Ceiling: Unl
Heat Index: 34°   Visibility: 10mi
Dew Point: 27°   Wind: 0mph
Humidity: 75%   Direction: NA
Pressure: 30.28"   Gusts: NA
Location:  42.2285°N, 112.313°W
Report Text: KLGU 271151Z AUTO 00000KT 10SM CLR 01/M03 A3028 RMK AO2 SLP250 T00111028 10039 21011 58008
Loading
Personal Weather Stations






























Interactive Weather Map New forecast layout! Learn more

10-Day Weather Forecast

Advertisements
Track Severe Weather on mobile